San Fernando, Spain
Current Conditions -  °F | °C
As of 4:00 PM on Monday 22 Dec 2014 (Local Time) from LERT Reporting Station
Few Clouds Few Clouds  
Wind Chill: 64°   Ceiling: Unl
Heat Index: 64°   Visibility: 6mi
Dew Point: 52°   Wind: 15mph
Humidity: 64%   Direction: 110°ESE
Pressure: 30.3"   Gusts: NA
Location:  36.48°N, 6.2°W
Report Text: LERT 221500Z 11013KT 080V140 9999 FEW030 18/11 Q1026 NOSIG
Loading
Personal Weather Stations






























Interactive Weather Map New forecast layout! Learn more

10-Day Weather Forecast

Advertisements
Track Severe Weather on mobile